Date,TemperatureHighF,TemperatureAvgF,TemperatureLowF,DewpointHighF,DewpointAvgF,DewpointLowF,HumidityHigh,HumidityAvg,HumidityLow,PressureMaxIn,PressureMinIn,WindSpeedMaxMPH,WindSpeedAvgMPH,GustSpeedMaxMPH,PrecipitationSumIn
2013-1-8,56.8,48.0,44.4,41.9,41.1,40.2,86,77,54,28.11,28.05,4,2,4,0.00
2013-3-27,35.1,34.9,34.7,24.5,24.3,23.8,66,65,64,28.05,28.05,0,0,0,0.00
2013-3-28,72.1,47.6,29.7,38.2,29.0,23.8,82,52,29,28.14,28.02,9,2,9,0.00
2013-3-29,57.6,46.4,37.9,35.1,30.3,25.1,70,54,39,28.11,27.96,6,1,6,0.00
2013-3-30,68.9,53.5,43.0,54.5,45.3,33.7,97,76,45,27.99,27.79,8,1,8,0.34
2013-3-31,61.7,58.0,53.4,59.8,57.0,52.6,98,96,93,27.79,27.67,6,2,6,0.50
2013-4-1,71.6,57.0,41.5,55.4,45.2,37.2,98,68,42,27.88,27.70,11,2,11,0.00
2013-4-2,59.7,51.3,36.9,37.2,28.5,23.0,74,42,34,28.02,27.88,6,2,6,0.00
2013-4-3,53.6,45.3,40.1,32.0,21.9,17.1,65,40,34,27.99,27.93,12,5,12,0.00
2013-4-4,43.5,41.7,39.2,41.9,40.5,32.8,98,96,67,27.93,27.82,14,4,14,0.62
2013-4-5,63.5,55.0,44.4,56.0,51.5,43.9,98,89,60,27.88,27.85,8,3,8,0.00
2013-4-7,68.4,64.6,63.1,44.0,42.5,41.1,49,45,37,27.88,27.85,5,2,5,0.00
2013-4-8,74.7,66.6,58.8,59.1,52.5,43.9,85,61,45,27.93,27.85,7,2,9,0.00
2013-4-9,70.0,64.3,57.7,53.9,52.7,51.4,84,67,53,27.96,27.90,7,1,7,0.00
2013-4-10,80.8,73.8,69.3,56.9,54.0,51.4,57,50,43,27.90,27.70,8,2,8,0.00
2013-4-11,77.5,68.6,60.6,64.4,61.4,56.9,98,79,60,27.70,27.37,11,4,13,0.91
2013-4-12,68.7,57.3,46.2,60.8,45.7,36.7,98,70,37,27.76,27.43,13,4,13,0.08
2013-4-13,77.5,57.4,44.4,46.9,41.2,38.3,81,59,27,27.90,27.76,8,2,8,0.00
2013-4-14,60.6,55.5,52.2,52.3,41.6,31.7,98,64,38,27.82,27.67,11,3,11,0.09
2013-4-15,76.8,67.7,54.7,67.4,59.9,54.1,98,77,58,27.90,27.79,8,2,8,0.00
2013-4-16,78.4,67.8,61.3,70.8,63.4,59.8,96,86,72,28.05,27.90,12,2,12,0.09
2013-4-17,69.6,69.4,69.3,64.9,64.6,64.4,85,85,84,27.99,27.99,4,2,4,0.00
2013-4-22,73.2,64.6,48.7,44.0,41.0,38.5,68,43,34,28.11,27.93,8,2,8,0.00
2013-4-23,74.7,62.9,50.4,46.5,40.5,30.0,70,45,33,28.02,27.85,8,2,8,0.00
2013-4-24,70.2,64.1,59.9,60.3,55.9,45.9,87,75,56,27.90,27.82,13,3,13,0.00
2013-4-25,71.4,60.2,38.8,49.9,37.5,28.0,98,45,30,28.14,28.05,6,2,6,0.00
2013-4-26,75.6,59.4,44.2,47.3,34.7,27.2,78,41,26,28.17,28.02,13,2,13,0.04
2013-4-27,59.0,53.9,50.5,58.4,53.0,46.9,98,97,77,28.14,27.88,10,3,10,0.37
2013-4-28,59.2,56.9,55.0,58.6,56.4,54.5,98,98,98,27.90,27.73,12,2,12,2.08
2013-4-29,77.4,63.0,54.3,67.8,57.1,52.5,98,83,50,27.82,27.76,6,1,6,0.00
2013-4-30,80.6,65.0,49.8,64.6,54.8,49.3,98,73,41,27.90,27.76,8,1,8,0.00
2013-5-1,73.6,65.2,59.9,63.1,58.7,54.8,96,81,63,27.99,27.90,8,2,8,0.00
2013-5-2,70.7,59.8,55.9,62.8,56.2,53.5,92,88,73,27.99,27.96,10,3,10,0.00
2013-5-3,63.1,59.2,57.0,59.5,57.0,56.0,97,93,82,27.88,27.73,18,4,18,0.04
2013-5-4,56.8,51.2,45.7,56.0,50.6,45.2,98,98,97,27.73,27.64,13,2,13,2.04
2013-5-5,66.2,51.0,44.6,59.7,49.2,44.1,98,94,77,27.67,27.55,6,2,6,0.24
2013-5-6,60.6,50.6,45.9,58.9,49.4,45.3,98,96,87,27.67,27.55,6,1,6,0.42
2013-5-7,73.2,58.5,46.4,62.3,52.5,45.9,98,83,51,27.79,27.67,6,2,6,0.00
2013-5-8,77.2,68.3,53.1,65.3,59.8,52.5,98,76,57,27.90,27.79,7,3,7,0.00
2013-5-9,78.8,69.6,63.1,58.5,56.3,53.1,83,64,41,27.90,27.88,4,1,4,0.00
2013-5-10,73.2,66.0,60.4,63.0,59.9,57.5,94,81,67,27.90,27.76,8,2,8,0.00
2013-5-11,77.0,66.8,61.0,69.2,63.4,57.9,98,89,73,27.79,27.76,6,3,6,0.04
2013-5-12,71.1,58.6,48.2,41.3,33.9,30.7,56,40,31,27.93,27.85,7,2,7,0.00
2013-5-13,72.9,52.2,40.6,43.7,37.0,31.7,84,60,31,28.02,27.93,6,1,6,0.00
2013-5-16,88.3,79.5,63.1,68.2,61.5,57.0,85,56,41,27.90,27.79,6,2,6,0.00
2013-5-27,89.1,79.1,66.9,65.5,59.2,54.7,81,52,38,28.02,27.90,5,1,5,0.00
2013-5-28,90.3,76.0,66.2,66.6,58.6,52.5,81,57,39,27.99,27.90,7,2,7,0.00
2013-5-29,78.3,71.1,65.5,75.3,61.3,51.2,98,72,51,28.02,27.93,6,2,6,0.00
2013-5-30,70.3,69.9,69.4,63.7,63.4,63.0,81,80,78,27.96,27.93,6,2,6,0.00
2013-11-8,66.6,49.8,36.7,31.6,23.2,18.1,59,36,24,28.14,28.02,6,1,6,0.00
2013-11-9,54.1,47.0,38.1,27.8,23.7,16.5,48,40,36,28.14,28.02,7,1,7,0.00
2013-11-10,77.2,61.2,45.0,41.2,30.4,22.0,51,32,23,28.11,28.02,7,1,7,0.00
2013-11-11,75.4,53.9,42.8,33.3,23.3,16.8,42,31,21,28.11,27.99,6,2,7,0.00
2013-11-12,53.6,42.1,26.8,24.1,15.3,5.9,41,34,28,28.23,27.93,8,2,8,0.00
2013-11-13,55.8,35.0,24.1,20.6,10.4,5.8,48,36,25,28.35,28.17,8,2,8,0.00
2013-11-14,64.9,46.4,28.8,25.2,15.0,7.8,41,29,20,28.23,28.02,6,1,6,0.00
2013-11-15,50.7,47.0,44.1,44.6,29.6,13.1,91,54,28,28.05,27.90,6,2,8,0.05
2013-11-16,57.2,53.4,47.3,55.0,51.2,44.2,95,92,87,28.02,27.90,8,2,8,0.00
2013-11-17,66.4,61.2,57.2,65.8,59.9,54.9,98,96,92,27.93,27.67,12,3,12,0.04
2013-11-18,69.8,60.2,53.1,65.8,44.6,39.1,98,59,36,27.88,27.73,8,2,8,0.00
2013-11-19,61.3,49.4,40.8,30.5,20.7,15.9,39,32,27,27.96,27.88,9,2,9,0.00
2013-11-20,41.2,40.7,40.3,18.4,18.1,17.3,40,40,39,28.02,27.93,10,2,11,0.00
2013-11-21,61.7,54.2,49.6,48.1,41.5,35.5,86,63,48,28.14,28.02,6,2,6,0.00
2013-11-23,54.5,44.0,30.7,48.7,32.1,16.1,93,64,44,28.11,28.02,6,2,7,0.00
2013-11-24,46.9,30.6,20.5,21.5,10.2,1.5,62,44,29,28.26,28.11,9,3,9,0.00
2013-11-25,38.1,34.5,30.6,28.7,14.3,6.2,85,45,33,28.17,27.96,10,3,10,0.04
2013-11-26,45.7,41.1,33.8,44.6,39.6,30.6,97,95,88,27.93,27.52,6,2,6,2.99
2013-11-27,38.1,28.4,20.3,29.4,17.9,8.6,90,66,45,28.02,27.61,11,3,11,0.00
2013-11-28,53.8,30.0,16.9,27.5,14.2,7.7,76,53,30,28.20,28.02,4,1,4,0.00
2013-11-29,59.0,35.7,27.5,27.6,14.3,9.9,51,41,29,28.29,28.20,6,1,6,0.00
2013-11-30,60.1,46.5,36.3,28.6,20.0,16.2,44,35,27,28.26,28.08,8,2,8,0.00
2013-12-1,57.9,44.4,32.2,32.1,25.0,16.3,61,47,36,28.08,27.79,6,1,6,0.00
2013-12-2,50.7,47.7,44.2,48.2,41.2,26.8,94,80,43,27.79,27.58,4,1,4,0.12
2013-12-3,55.4,51.7,48.9,54.8,50.6,47.7,98,96,93,27.70,27.61,5,1,5,0.00
2013-12-4,68.0,60.8,55.4,60.9,58.0,54.8,98,91,72,27.82,27.70,8,2,8,0.00
2013-12-5,71.4,66.4,63.3,66.1,63.8,61.9,96,92,78,27.88,27.76,10,2,10,0.00
2013-12-6,69.4,58.8,38.5,66.4,56.5,36.1,97,92,79,27.93,27.73,13,3,13,0.75
2013-12-7,40.5,36.0,33.6,36.9,34.1,32.8,98,93,83,28.11,27.93,9,3,9,0.29
2013-12-8,47.1,41.6,33.4,46.6,41.1,32.9,98,98,98,28.02,27.88,10,3,10,0.99
2013-12-9,54.5,48.0,42.4,54.0,47.5,41.9,98,98,98,27.96,27.82,7,1,7,0.67
2013-12-10,50.2,36.9,27.1,43.0,32.3,21.8,98,85,48,28.11,27.79,8,2,8,0.41
2013-12-11,58.5,37.4,25.7,33.6,20.6,15.9,86,53,33,28.20,28.08,5,2,5,0.50
2013-12-12,51.1,33.7,23.0,25.1,15.5,9.8,74,48,30,28.23,28.14,6,2,6,0.00
2013-12-13,49.6,36.1,24.8,24.1,15.6,9.9,55,43,35,28.14,27.90,6,1,6,0.00
2013-12-14,51.1,46.8,42.8,49.8,39.6,19.3,96,79,38,27.93,27.61,10,3,10,0.83
2013-12-15,33.8,31.9,29.5,30.9,28.1,25.8,93,86,79,27.96,27.82,7,3,7,0.00
2013-12-16,57.9,39.4,27.9,33.8,26.9,23.1,95,65,36,28.02,27.93,10,3,10,0.00
2013-12-17,63.9,44.3,37.2,34.2,24.5,17.5,56,46,31,28.02,27.85,9,4,9,0.00
2013-12-18,58.6,37.7,27.0,25.5,18.1,14.4,63,47,26,28.11,28.02,5,1,5,0.00
2013-12-19,68.0,49.1,36.1,29.7,18.7,11.1,39,30,23,28.08,27.93,8,2,8,0.00
2013-12-20,61.5,54.8,46.8,49.4,35.2,17.1,77,49,28,27.99,27.90,7,2,7,0.00
2013-12-21,67.1,61.6,56.3,64.7,59.1,48.8,97,91,76,27.90,27.67,9,4,9,0.04
2013-12-22,67.1,56.3,51.8,64.4,54.3,50.1,97,93,86,27.88,27.64,11,2,11,1.70
2013-12-23,51.8,39.8,28.4,50.5,36.5,23.8,98,88,76,28.11,27.88,8,3,8,0.05
2013-12-24,45.1,29.6,24.3,25.7,18.9,9.4,85,66,40,28.20,28.08,7,2,7,0.00
2013-12-25,53.8,33.2,21.4,27.5,15.1,8.0,58,48,36,28.17,28.08,9,2,9,0.00
2013-12-26,57.9,36.7,30.4,29.0,18.9,16.2,60,49,30,28.14,28.05,4,1,4,0.00
2013-12-27,58.8,34.6,28.4,26.3,16.4,13.6,57,48,29,28.23,28.08,3,0,3,0.00
2013-12-28,42.4,37.8,32.4,36.5,23.4,14.6,92,58,40,28.14,27.76,8,2,8,1.03
2013-12-29,47.5,42.2,38.7,43.5,39.2,36.5,96,89,78,27.85,27.67,6,2,6,0.29
2013-12-30,42.8,38.5,34.7,38.7,34.0,30.5,91,84,73,27.99,27.82,5,2,5,0.00
2013-12-31,46.6,34.5,28.4,31.5,27.1,21.6,91,76,46,28.17,27.96,6,2,6,0.00
2014-1-1,54.5,41.3,29.3,31.8,25.5,20.7,78,54,38,28.11,27.82,6,2,6,0.00
2014-1-2,46.2,36.4,18.5,45.4,31.5,9.7,97,83,63,27.93,27.58,12,4,12,0.29